North Ottawa, Illinois
Current Conditions -  °F | °C
As of 9:55 PM on Saturday 20 Dec 2014 (Local Time) from KVYS Reporting Station
Overcast Overcast  
Wind Chill: 27°   Ceiling: 2200
Heat Index: 33°   Visibility: 7mi
Dew Point: 30°   Wind: 7mph
Humidity: 89%   Direction: 150°SSE
Pressure: 30.24"   Gusts: NA
Location:  41.4349°N, 88.8687°W
Report Text: KVYS 210355Z AUTO 15006KT 7SM OVC022 01/M01 A3024 RMK AO2 T00061010
Loading
Personal Weather Stations






























Interactive Weather Map New forecast layout! Learn more

10-Day Weather Forecast

Advertisements
Track Severe Weather on mobile